sensor_id;sensor_type;location;lat;lon;timestamp;temperature;humidity
34877;DHT22;21086;44.780;17.194;2022-11-04T00:00:17;12.30;99.90
34877;DHT22;21086;44.780;17.194;2022-11-04T00:02:44;12.30;99.90
34877;DHT22;21086;44.780;17.194;2022-11-04T00:05:11;12.20;99.90
34877;DHT22;21086;44.780;17.194;2022-11-04T00:07:38;12.20;99.90
34877;DHT22;21086;44.780;17.194;2022-11-04T00:10:23;12.20;99.90
34877;DHT22;21086;44.780;17.194;2022-11-04T00:13:10;12.10;99.90
34877;DHT22;21086;44.780;17.194;2022-11-04T00:15:37;12.10;99.90
34877;DHT22;21086;44.780;17.194;2022-11-04T00:18:22;12.10;99.90
34877;DHT22;21086;44.780;17.194;2022-11-04T00:20:49;12.10;99.90
34877;DHT22;21086;44.780;17.194;2022-11-04T00:23:35;12.10;99.90
34877;DHT22;21086;44.780;17.194;2022-11-04T00:26:20;12.20;99.90
34877;DHT22;21086;44.780;17.194;2022-11-04T00:29:05;12.20;99.90
34877;DHT22;21086;44.780;17.194;2022-11-04T00:31:32;12.30;99.90
34877;DHT22;21086;44.780;17.194;2022-11-04T00:34:17;12.30;99.90
34877;DHT22;21086;44.780;17.194;2022-11-04T00:36:44;12.20;99.90
34877;DHT22;21086;44.780;17.194;2022-11-04T00:39:11;12.10;99.90
34877;DHT22;21086;44.780;17.194;2022-11-04T00:41:38;12.00;99.90
34877;DHT22;21086;44.780;17.194;2022-11-04T00:44:05;11.90;99.90
34877;DHT22;21086;44.780;17.194;2022-11-04T00:46:32;11.90;99.90
34877;DHT22;21086;44.780;17.194;2022-11-04T00:49:00;11.90;99.90
34877;DHT22;21086;44.780;17.194;2022-11-04T00:51:27;11.90;99.90
34877;DHT22;21086;44.780;17.194;2022-11-04T00:53:55;11.80;99.90
34877;DHT22;21086;44.780;17.194;2022-11-04T00:56:23;11.70;99.90
34877;DHT22;21086;44.780;17.194;2022-11-04T00:58:51;11.60;99.90
34877;DHT22;21086;44.780;17.194;2022-11-04T01:01:18;11.60;99.90
34877;DHT22;21086;44.780;17.194;2022-11-04T01:03:47;11.60;99.90
34877;DHT22;21086;44.780;17.194;2022-11-04T01:06:15;11.50;99.90
34877;DHT22;21086;44.780;17.194;2022-11-04T01:08:42;11.60;99.90
34877;DHT22;21086;44.780;17.194;2022-11-04T01:11:10;11.50;99.90
34877;DHT22;21086;44.780;17.194;2022-11-04T01:13:38;11.50;99.90
34877;DHT22;21086;44.780;17.194;2022-11-04T01:16:07;11.50;99.90
34877;DHT22;21086;44.780;17.194;2022-11-04T01:18:34;11.40;99.90
34877;DHT22;21086;44.780;17.194;2022-11-04T01:21:03;11.30;99.90
34877;DHT22;21086;44.780;17.194;2022-11-04T01:23:30;11.30;99.90
34877;DHT22;21086;44.780;17.194;2022-11-04T01:25:57;11.30;99.90
34877;DHT22;21086;44.780;17.194;2022-11-04T01:28:24;11.40;99.90
34877;DHT22;21086;44.780;17.194;2022-11-04T01:30:51;11.40;99.90
34877;DHT22;21086;44.780;17.194;2022-11-04T01:33:18;11.40;99.90
34877;DHT22;21086;44.780;17.194;2022-11-04T01:35:45;11.40;99.90
34877;DHT22;21086;44.780;17.194;2022-11-04T01:38:12;11.50;99.90
34877;DHT22;21086;44.780;17.194;2022-11-04T01:40:39;11.40;99.90
34877;DHT22;21086;44.780;17.194;2022-11-04T01:43:18;11.50;99.90
34877;DHT22;21086;44.780;17.194;2022-11-04T01:45:52;11.60;99.90
34877;DHT22;21086;44.780;17.194;2022-11-04T01:48:26;11.60;99.90
34877;DHT22;21086;44.780;17.194;2022-11-04T01:50:55;11.70;99.90
34877;DHT22;21086;44.780;17.194;2022-11-04T01:53:29;11.60;99.90
34877;DHT22;21086;44.780;17.194;2022-11-04T01:55:59;11.70;99.90
34877;DHT22;21086;44.780;17.194;2022-11-04T01:58:31;11.60;99.90
34877;DHT22;21086;44.780;17.194;2022-11-04T02:00:58;11.70;99.90
34877;DHT22;21086;44.780;17.194;2022-11-04T02:03:30;11.60;99.90
34877;DHT22;21086;44.780;17.194;2022-11-04T02:05:58;11.70;99.90
34877;DHT22;21086;44.780;17.194;2022-11-04T02:08:26;11.70;99.90
34877;DHT22;21086;44.780;17.194;2022-11-04T02:10:58;11.60;99.90
34877;DHT22;21086;44.780;17.194;2022-11-04T02:13:26;11.70;99.90
34877;DHT22;21086;44.780;17.194;2022-11-04T02:32:26;11.60;99.90
34877;DHT22;21086;44.780;17.194;2022-11-04T02:35:37;11.50;99.90
34877;DHT22;21086;44.780;17.194;2022-11-04T02:43:46;11.40;99.90
34877;DHT22;21086;44.780;17.194;2022-11-04T02:46:24;11.40;99.90
34877;DHT22;21086;44.780;17.194;2022-11-04T02:49:10;11.40;99.90
34877;DHT22;21086;44.780;17.194;2022-11-04T02:51:57;11.40;99.90
34877;DHT22;21086;44.780;17.194;2022-11-04T02:54:32;11.50;99.90
34877;DHT22;21086;44.780;17.194;2022-11-04T02:57:02;11.60;99.90
34877;DHT22;21086;44.780;17.194;2022-11-04T02:59:49;11.60;99.90
34877;DHT22;21086;44.780;17.194;2022-11-04T03:02:23;11.40;99.90
34877;DHT22;21086;44.780;17.194;2022-11-04T03:04:54;11.50;99.90
34877;DHT22;21086;44.780;17.194;2022-11-04T03:07:25;11.50;99.90
34877;DHT22;21086;44.780;17.194;2022-11-04T03:09:59;11.40;99.90
34877;DHT22;21086;44.780;17.194;2022-11-04T03:12:34;11.40;99.90
34877;DHT22;21086;44.780;17.194;2022-11-04T03:15:07;11.50;99.90
34877;DHT22;21086;44.780;17.194;2022-11-04T03:17:49;11.50;99.90
34877;DHT22;21086;44.780;17.194;2022-11-04T03:20:22;11.50;99.90
34877;DHT22;21086;44.780;17.194;2022-11-04T03:22:50;11.40;99.90
34877;DHT22;21086;44.780;17.194;2022-11-04T03:25:29;11.50;99.90
34877;DHT22;21086;44.780;17.194;2022-11-04T03:28:25;11.40;99.90
34877;DHT22;21086;44.780;17.194;2022-11-04T03:30:54;11.50;99.90
34877;DHT22;21086;44.780;17.194;2022-11-04T03:35:52;11.50;99.90
34877;DHT22;21086;44.780;17.194;2022-11-04T03:38:20;11.50;99.90
34877;DHT22;21086;44.780;17.194;2022-11-04T03:40:48;11.40;99.90
34877;DHT22;21086;44.780;17.194;2022-11-04T03:43:25;11.50;99.90
34877;DHT22;21086;44.780;17.194;2022-11-04T03:45:53;11.40;99.90
34877;DHT22;21086;44.780;17.194;2022-11-04T03:48:21;11.40;99.90
34877;DHT22;21086;44.780;17.194;2022-11-04T03:50:48;11.40;99.90
34877;DHT22;21086;44.780;17.194;2022-11-04T03:53:21;11.40;99.90
34877;DHT22;21086;44.780;17.194;2022-11-04T04:01:36;11.50;99.90
34877;DHT22;21086;44.780;17.194;2022-11-04T04:04:19;11.50;99.90
34877;DHT22;21086;44.780;17.194;2022-11-04T04:06:50;11.40;99.90
34877;DHT22;21086;44.780;17.194;2022-11-04T04:09:49;11.50;99.90
34877;DHT22;21086;44.780;17.194;2022-11-04T04:12:26;11.50;99.90
34877;DHT22;21086;44.780;17.194;2022-11-04T04:15:04;11.60;99.90
34877;DHT22;21086;44.780;17.194;2022-11-04T04:17:44;11.50;99.90
34877;DHT22;21086;44.780;17.194;2022-11-04T04:20:19;11.50;99.90
34877;DHT22;21086;44.780;17.194;2022-11-04T04:22:54;11.40;99.90
34877;DHT22;21086;44.780;17.194;2022-11-04T04:25:25;11.40;99.90
34877;DHT22;21086;44.780;17.194;2022-11-04T04:28:19;11.50;99.90
34877;DHT22;21086;44.780;17.194;2022-11-04T04:30:46;11.50;99.90
34877;DHT22;21086;44.780;17.194;2022-11-04T04:33:17;11.60;99.90
34877;DHT22;21086;44.780;17.194;2022-11-04T04:35:49;11.60;99.90
34877;DHT22;21086;44.780;17.194;2022-11-04T04:38:22;11.60;99.90
34877;DHT22;21086;44.780;17.194;2022-11-04T04:41:19;11.50;99.90
34877;DHT22;21086;44.780;17.194;2022-11-04T04:47:03;11.50;99.90
34877;DHT22;21086;44.780;17.194;2022-11-04T04:49:30;11.50;99.90
34877;DHT22;21086;44.780;17.194;2022-11-04T04:52:04;11.50;99.90
34877;DHT22;21086;44.780;17.194;2022-11-04T04:54:33;11.60;99.90
34877;DHT22;21086;44.780;17.194;2022-11-04T04:56:59;11.60;99.90
34877;DHT22;21086;44.780;17.194;2022-11-04T04:59:26;11.60;99.90
34877;DHT22;21086;44.780;17.194;2022-11-04T05:01:53;11.60;99.90
34877;DHT22;21086;44.780;17.194;2022-11-04T05:04:20;11.50;99.90
34877;DHT22;21086;44.780;17.194;2022-11-04T05:06:47;11.60;99.90
34877;DHT22;21086;44.780;17.194;2022-11-04T05:09:14;11.50;99.90
34877;DHT22;21086;44.780;17.194;2022-11-04T05:11:41;11.50;99.90
34877;DHT22;21086;44.780;17.194;2022-11-04T05:14:07;11.50;99.90
34877;DHT22;21086;44.780;17.194;2022-11-04T05:16:34;11.50;99.90
34877;DHT22;21086;44.780;17.194;2022-11-04T05:19:06;11.60;99.90
34877;DHT22;21086;44.780;17.194;2022-11-04T05:21:33;11.60;99.90
34877;DHT22;21086;44.780;17.194;2022-11-04T05:24:00;11.70;99.90
34877;DHT22;21086;44.780;17.194;2022-11-04T05:26:27;11.70;99.90
34877;DHT22;21086;44.780;17.194;2022-11-04T05:28:53;11.70;99.90
34877;DHT22;21086;44.780;17.194;2022-11-04T05:31:20;11.70;99.90
34877;DHT22;21086;44.780;17.194;2022-11-04T05:33:47;11.60;99.90
34877;DHT22;21086;44.780;17.194;2022-11-04T05:36:15;11.50;99.90
34877;DHT22;21086;44.780;17.194;2022-11-04T05:38:43;11.70;99.90
34877;DHT22;21086;44.780;17.194;2022-11-04T05:41:11;11.70;99.90
34877;DHT22;21086;44.780;17.194;2022-11-04T05:44:00;11.60;99.90
34877;DHT22;21086;44.780;17.194;2022-11-04T05:46:27;11.60;99.90
34877;DHT22;21086;44.780;17.194;2022-11-04T05:48:55;11.60;99.90
34877;DHT22;21086;44.780;17.194;2022-11-04T05:51:24;11.70;99.90
34877;DHT22;21086;44.780;17.194;2022-11-04T05:53:52;11.80;99.90
34877;DHT22;21086;44.780;17.194;2022-11-04T05:56:19;12.60;99.90
34877;DHT22;21086;44.780;17.194;2022-11-04T05:58:46;12.80;99.90
34877;DHT22;21086;44.780;17.194;2022-11-04T06:01:29;13.00;99.90
34877;DHT22;21086;44.780;17.194;2022-11-04T06:03:58;13.10;99.90
34877;DHT22;21086;44.780;17.194;2022-11-04T06:06:27;13.10;99.90
34877;DHT22;21086;44.780;17.194;2022-11-04T06:08:54;13.60;99.90
34877;DHT22;21086;44.780;17.194;2022-11-04T06:11:22;13.20;99.90
34877;DHT22;21086;44.780;17.194;2022-11-04T06:13:49;13.10;99.90
34877;DHT22;21086;44.780;17.194;2022-11-04T06:16:16;12.90;99.90
34877;DHT22;21086;44.780;17.194;2022-11-04T06:18:43;12.70;99.90
34877;DHT22;21086;44.780;17.194;2022-11-04T06:21:20;12.40;99.90
34877;DHT22;21086;44.780;17.194;2022-11-04T06:23:48;12.40;99.90
34877;DHT22;21086;44.780;17.194;2022-11-04T06:26:15;12.30;99.90
34877;DHT22;21086;44.780;17.194;2022-11-04T06:28:44;12.30;99.90
34877;DHT22;21086;44.780;17.194;2022-11-04T06:31:12;12.30;99.90
34877;DHT22;21086;44.780;17.194;2022-11-04T06:33:39;12.30;99.90
34877;DHT22;21086;44.780;17.194;2022-11-04T06:36:07;12.30;99.90
34877;DHT22;21086;44.780;17.194;2022-11-04T06:38:36;12.20;99.90
34877;DHT22;21086;44.780;17.194;2022-11-04T06:41:06;12.30;99.90
34877;DHT22;21086;44.780;17.194;2022-11-04T06:43:33;12.40;99.90
34877;DHT22;21086;44.780;17.194;2022-11-04T06:46:01;12.40;99.90
34877;DHT22;21086;44.780;17.194;2022-11-04T06:48:29;12.50;99.90
34877;DHT22;21086;44.780;17.194;2022-11-04T06:50:57;12.70;99.90
34877;DHT22;21086;44.780;17.194;2022-11-04T06:53:25;12.70;99.90
34877;DHT22;21086;44.780;17.194;2022-11-04T06:55:53;12.80;99.90
34877;DHT22;21086;44.780;17.194;2022-11-04T06:58:20;12.90;99.90
34877;DHT22;21086;44.780;17.194;2022-11-04T07:00:51;13.00;99.90
34877;DHT22;21086;44.780;17.194;2022-11-04T07:03:19;13.10;99.90
34877;DHT22;21086;44.780;17.194;2022-11-04T07:05:46;13.00;99.90
34877;DHT22;21086;44.780;17.194;2022-11-04T07:08:13;13.20;99.90
34877;DHT22;21086;44.780;17.194;2022-11-04T07:10:40;13.20;99.90
34877;DHT22;21086;44.780;17.194;2022-11-04T07:13:07;13.30;99.90
34877;DHT22;21086;44.780;17.194;2022-11-04T07:15:34;13.40;99.90
34877;DHT22;21086;44.780;17.194;2022-11-04T07:18:01;13.40;99.90
34877;DHT22;21086;44.780;17.194;2022-11-04T07:20:28;13.40;99.90
34877;DHT22;21086;44.780;17.194;2022-11-04T07:22:56;13.30;99.90
34877;DHT22;21086;44.780;17.194;2022-11-04T07:25:23;13.40;99.90
34877;DHT22;21086;44.780;17.194;2022-11-04T07:27:50;13.40;99.90
34877;DHT22;21086;44.780;17.194;2022-11-04T07:30:17;13.50;99.90
34877;DHT22;21086;44.780;17.194;2022-11-04T07:32:46;13.60;99.90
34877;DHT22;21086;44.780;17.194;2022-11-04T07:35:13;13.80;99.90
34877;DHT22;21086;44.780;17.194;2022-11-04T07:37:40;13.80;99.90
34877;DHT22;21086;44.780;17.194;2022-11-04T07:40:07;13.90;99.90
34877;DHT22;21086;44.780;17.194;2022-11-04T07:42:35;14.00;99.90
34877;DHT22;21086;44.780;17.194;2022-11-04T07:45:02;14.10;99.90
34877;DHT22;21086;44.780;17.194;2022-11-04T07:47:30;13.90;99.90
34877;DHT22;21086;44.780;17.194;2022-11-04T07:49:57;13.90;99.90
34877;DHT22;21086;44.780;17.194;2022-11-04T07:52:24;13.90;99.90
34877;DHT22;21086;44.780;17.194;2022-11-04T07:54:51;13.90;99.90
34877;DHT22;21086;44.780;17.194;2022-11-04T07:57:18;13.80;99.90
34877;DHT22;21086;44.780;17.194;2022-11-04T07:59:45;13.80;99.90
34877;DHT22;21086;44.780;17.194;2022-11-04T08:02:12;13.80;99.90
34877;DHT22;21086;44.780;17.194;2022-11-04T08:04:39;13.80;99.90
34877;DHT22;21086;44.780;17.194;2022-11-04T08:07:08;13.80;99.90
34877;DHT22;21086;44.780;17.194;2022-11-04T08:09:35;13.90;99.90
34877;DHT22;21086;44.780;17.194;2022-11-04T08:12:05;13.90;99.90
34877;DHT22;21086;44.780;17.194;2022-11-04T08:14:32;14.00;99.90
34877;DHT22;21086;44.780;17.194;2022-11-04T08:16:59;14.20;99.90
34877;DHT22;21086;44.780;17.194;2022-11-04T08:19:26;14.20;99.90
34877;DHT22;21086;44.780;17.194;2022-11-04T08:21:53;14.20;99.90
34877;DHT22;21086;44.780;17.194;2022-11-04T08:24:20;14.20;99.90
34877;DHT22;21086;44.780;17.194;2022-11-04T08:26:47;14.20;99.90
34877;DHT22;21086;44.780;17.194;2022-11-04T08:29:14;14.20;99.90
34877;DHT22;21086;44.780;17.194;2022-11-04T08:31:41;14.10;99.90
34877;DHT22;21086;44.780;17.194;2022-11-04T08:34:08;14.10;99.90
34877;DHT22;21086;44.780;17.194;2022-11-04T08:36:37;14.00;99.90
34877;DHT22;21086;44.780;17.194;2022-11-04T08:39:07;14.00;99.90
34877;DHT22;21086;44.780;17.194;2022-11-04T08:41:38;14.00;99.90
34877;DHT22;21086;44.780;17.194;2022-11-04T08:44:06;14.00;99.90
34877;DHT22;21086;44.780;17.194;2022-11-04T08:46:37;14.00;99.90
34877;DHT22;21086;44.780;17.194;2022-11-04T08:49:04;14.00;99.90
34877;DHT22;21086;44.780;17.194;2022-11-04T08:51:40;13.90;99.90
34877;DHT22;21086;44.780;17.194;2022-11-04T08:54:07;13.90;99.90
34877;DHT22;21086;44.780;17.194;2022-11-04T08:56:36;13.90;99.90
34877;DHT22;21086;44.780;17.194;2022-11-04T08:59:04;13.90;99.90
34877;DHT22;21086;44.780;17.194;2022-11-04T09:01:34;13.80;99.90
34877;DHT22;21086;44.780;17.194;2022-11-04T09:04:03;13.80;99.90
34877;DHT22;21086;44.780;17.194;2022-11-04T09:06:34;13.90;99.90
34877;DHT22;21086;44.780;17.194;2022-11-04T09:09:02;13.90;99.90
34877;DHT22;21086;44.780;17.194;2022-11-04T09:11:31;13.90;99.90
34877;DHT22;21086;44.780;17.194;2022-11-04T09:14:02;13.90;99.90
34877;DHT22;21086;44.780;17.194;2022-11-04T09:16:31;13.90;99.90
34877;DHT22;21086;44.780;17.194;2022-11-04T09:18:59;13.80;99.90
34877;DHT22;21086;44.780;17.194;2022-11-04T09:21:26;13.80;99.90
34877;DHT22;21086;44.780;17.194;2022-11-04T09:23:54;13.80;99.90
34877;DHT22;21086;44.780;17.194;2022-11-04T09:26:22;13.80;99.90
34877;DHT22;21086;44.780;17.194;2022-11-04T09:28:55;13.70;99.90
34877;DHT22;21086;44.780;17.194;2022-11-04T09:31:24;13.60;99.90
34877;DHT22;21086;44.780;17.194;2022-11-04T09:33:53;13.70;99.90
34877;DHT22;21086;44.780;17.194;2022-11-04T09:36:20;13.60;99.90
34877;DHT22;21086;44.780;17.194;2022-11-04T09:38:47;13.70;99.90
34877;DHT22;21086;44.780;17.194;2022-11-04T09:41:27;13.70;99.90
34877;DHT22;21086;44.780;17.194;2022-11-04T09:44:08;13.70;99.90
34877;DHT22;21086;44.780;17.194;2022-11-04T09:46:37;13.80;99.90
34877;DHT22;21086;44.780;17.194;2022-11-04T09:49:07;13.90;99.90
34877;DHT22;21086;44.780;17.194;2022-11-04T09:51:36;14.00;99.90
34877;DHT22;21086;44.780;17.194;2022-11-04T09:54:37;14.10;99.90
34877;DHT22;21086;44.780;17.194;2022-11-04T09:57:16;14.10;99.90
34877;DHT22;21086;44.780;17.194;2022-11-04T09:59:44;14.10;99.90
34877;DHT22;21086;44.780;17.194;2022-11-04T10:02:33;14.20;99.90
34877;DHT22;21086;44.780;17.194;2022-11-04T10:21:18;14.50;99.90
34877;DHT22;21086;44.780;17.194;2022-11-04T10:23:58;14.60;99.90
34877;DHT22;21086;44.780;17.194;2022-11-04T10:27:07;14.50;99.90
34877;DHT22;21086;44.780;17.194;2022-11-04T10:29:52;14.60;99.90
34877;DHT22;21086;44.780;17.194;2022-11-04T10:32:34;14.60;99.90
34877;DHT22;21086;44.780;17.194;2022-11-04T10:37:38;14.50;99.90
34877;DHT22;21086;44.780;17.194;2022-11-04T10:40:26;14.40;99.90
34877;DHT22;21086;44.780;17.194;2022-11-04T10:42:57;14.50;99.90
34877;DHT22;21086;44.780;17.194;2022-11-04T10:45:33;14.40;99.90
34877;DHT22;21086;44.780;17.194;2022-11-04T10:48:07;14.40;99.90
34877;DHT22;21086;44.780;17.194;2022-11-04T10:50:54;14.50;99.90
34877;DHT22;21086;44.780;17.194;2022-11-04T10:53:26;14.40;99.90
34877;DHT22;21086;44.780;17.194;2022-11-04T10:56:09;14.40;99.90
34877;DHT22;21086;44.780;17.194;2022-11-04T10:58:45;14.50;99.90
34877;DHT22;21086;44.780;17.194;2022-11-04T11:01:23;14.50;99.90
34877;DHT22;21086;44.780;17.194;2022-11-04T11:03:50;14.60;99.90
34877;DHT22;21086;44.780;17.194;2022-11-04T11:06:30;14.60;99.90
34877;DHT22;21086;44.780;17.194;2022-11-04T11:09:13;14.50;99.90
34877;DHT22;21086;44.780;17.194;2022-11-04T11:11:49;14.60;99.90
34877;DHT22;21086;44.780;17.194;2022-11-04T11:16:55;14.60;99.90
34877;DHT22;21086;44.780;17.194;2022-11-04T11:19:25;14.70;99.90
34877;DHT22;21086;44.780;17.194;2022-11-04T11:21:54;14.70;99.90
34877;DHT22;21086;44.780;17.194;2022-11-04T11:24:26;14.80;99.90
34877;DHT22;21086;44.780;17.194;2022-11-04T11:26:59;14.70;99.90
34877;DHT22;21086;44.780;17.194;2022-11-04T11:29:29;14.80;99.90
34877;DHT22;21086;44.780;17.194;2022-11-04T11:31:58;14.80;99.90
34877;DHT22;21086;44.780;17.194;2022-11-04T11:34:36;14.80;99.90
34877;DHT22;21086;44.780;17.194;2022-11-04T11:37:18;14.80;99.90
34877;DHT22;21086;44.780;17.194;2022-11-04T11:39:47;14.90;99.90
34877;DHT22;21086;44.780;17.194;2022-11-04T11:42:14;15.00;99.90
34877;DHT22;21086;44.780;17.194;2022-11-04T11:45:02;15.00;99.90
34877;DHT22;21086;44.780;17.194;2022-11-04T11:47:36;15.00;99.90
34877;DHT22;21086;44.780;17.194;2022-11-04T11:50:19;15.10;99.90
34877;DHT22;21086;44.780;17.194;2022-11-04T11:52:50;15.00;99.90
34877;DHT22;21086;44.780;17.194;2022-11-04T12:01:40;15.00;99.90
34877;DHT22;21086;44.780;17.194;2022-11-04T12:04:08;15.00;99.90
34877;DHT22;21086;44.780;17.194;2022-11-04T12:18:46;15.00;99.90
34877;DHT22;21086;44.780;17.194;2022-11-04T12:21:29;15.20;99.90
34877;DHT22;21086;44.780;17.194;2022-11-04T12:27:31;15.20;99.90
34877;DHT22;21086;44.780;17.194;2022-11-04T12:30:12;15.20;99.90
34877;DHT22;21086;44.780;17.194;2022-11-04T12:33:09;15.20;99.90
34877;DHT22;21086;44.780;17.194;2022-11-04T12:36:00;15.20;99.90
34877;DHT22;21086;44.780;17.194;2022-11-04T12:39:11;15.30;99.90
34877;DHT22;21086;44.780;17.194;2022-11-04T12:45:02;15.50;99.90
34877;DHT22;21086;44.780;17.194;2022-11-04T12:47:41;15.50;99.90
34877;DHT22;21086;44.780;17.194;2022-11-04T12:50:17;15.60;99.90
34877;DHT22;21086;44.780;17.194;2022-11-04T12:59:03;16.10;99.90
34877;DHT22;21086;44.780;17.194;2022-11-04T13:01:39;16.30;99.90
34877;DHT22;21086;44.780;17.194;2022-11-04T13:04:19;16.30;99.90
34877;DHT22;21086;44.780;17.194;2022-11-04T13:06:59;16.40;99.90
34877;DHT22;21086;44.780;17.194;2022-11-04T13:12:33;16.50;99.90
34877;DHT22;21086;44.780;17.194;2022-11-04T13:15:25;16.60;99.90
34877;DHT22;21086;44.780;17.194;2022-11-04T13:17:52;16.60;99.90
34877;DHT22;21086;44.780;17.194;2022-11-04T13:20:46;16.70;99.90
34877;DHT22;21086;44.780;17.194;2022-11-04T13:23:21;16.90;99.90
34877;DHT22;21086;44.780;17.194;2022-11-04T13:25:50;16.90;99.90
34877;DHT22;21086;44.780;17.194;2022-11-04T13:28:19;16.90;99.90
34877;DHT22;21086;44.780;17.194;2022-11-04T13:37:05;17.70;99.90
34877;DHT22;21086;44.780;17.194;2022-11-04T13:39:41;18.10;99.90
34877;DHT22;21086;44.780;17.194;2022-11-04T13:42:44;18.50;99.90
34877;DHT22;21086;44.780;17.194;2022-11-04T13:45:16;18.90;99.90
34877;DHT22;21086;44.780;17.194;2022-11-04T13:47:51;19.20;99.90
34877;DHT22;21086;44.780;17.194;2022-11-04T13:52:59;19.70;99.90
34877;DHT22;21086;44.780;17.194;2022-11-04T13:55:26;20.00;99.90
34877;DHT22;21086;44.780;17.194;2022-11-04T13:57:59;20.10;99.90
34877;DHT22;21086;44.780;17.194;2022-11-04T14:00:28;20.10;99.90
34877;DHT22;21086;44.780;17.194;2022-11-04T14:02:56;20.00;99.90
34877;DHT22;21086;44.780;17.194;2022-11-04T14:16:09;19.60;99.90
34877;DHT22;21086;44.780;17.194;2022-11-04T14:18:41;19.10;99.90
34877;DHT22;21086;44.780;17.194;2022-11-04T14:21:09;18.90;99.90
34877;DHT22;21086;44.780;17.194;2022-11-04T14:23:41;18.60;99.90
34877;DHT22;21086;44.780;17.194;2022-11-04T14:26:10;18.40;99.90
34877;DHT22;21086;44.780;17.194;2022-11-04T14:28:41;18.30;99.90
34877;DHT22;21086;44.780;17.194;2022-11-04T14:31:11;18.10;99.90
34877;DHT22;21086;44.780;17.194;2022-11-04T14:33:50;18.00;99.90
34877;DHT22;21086;44.780;17.194;2022-11-04T14:39:03;17.70;99.90
34877;DHT22;21086;44.780;17.194;2022-11-04T14:42:07;17.40;99.90
34877;DHT22;21086;44.780;17.194;2022-11-04T14:44:43;17.30;99.90
34877;DHT22;21086;44.780;17.194;2022-11-04T14:47:27;17.10;99.90
34877;DHT22;21086;44.780;17.194;2022-11-04T14:49:59;16.90;99.90
34877;DHT22;21086;44.780;17.194;2022-11-04T14:57:39;16.60;99.90
34877;DHT22;21086;44.780;17.194;2022-11-04T15:05:37;16.40;99.90
34877;DHT22;21086;44.780;17.194;2022-11-04T15:08:31;16.40;99.90
34877;DHT22;21086;44.780;17.194;2022-11-04T15:13:25;16.40;99.90
34877;DHT22;21086;44.780;17.194;2022-11-04T15:15:54;16.40;99.90
34877;DHT22;21086;44.780;17.194;2022-11-04T15:18:25;16.40;99.90
34877;DHT22;21086;44.780;17.194;2022-11-04T15:20:56;16.40;99.90
34877;DHT22;21086;44.780;17.194;2022-11-04T15:23:29;16.40;99.90
34877;DHT22;21086;44.780;17.194;2022-11-04T15:25:57;16.60;99.90
34877;DHT22;21086;44.780;17.194;2022-11-04T15:28:32;16.50;99.90
34877;DHT22;21086;44.780;17.194;2022-11-04T15:31:04;16.50;99.90
34877;DHT22;21086;44.780;17.194;2022-11-04T15:33:50;16.40;99.90
34877;DHT22;21086;44.780;17.194;2022-11-04T15:36:38;16.50;99.90
34877;DHT22;21086;44.780;17.194;2022-11-04T15:39:15;16.50;99.90
34877;DHT22;21086;44.780;17.194;2022-11-04T15:41:44;16.40;99.90
34877;DHT22;21086;44.780;17.194;2022-11-04T15:44:32;16.40;99.90
34877;DHT22;21086;44.780;17.194;2022-11-04T15:47:23;16.40;99.90
34877;DHT22;21086;44.780;17.194;2022-11-04T15:49:52;16.40;99.90
34877;DHT22;21086;44.780;17.194;2022-11-04T15:54:48;16.30;99.90
34877;DHT22;21086;44.780;17.194;2022-11-04T15:57:22;16.40;99.90
34877;DHT22;21086;44.780;17.194;2022-11-04T16:02:30;16.40;99.90
34877;DHT22;21086;44.780;17.194;2022-11-04T16:05:24;16.30;99.90
34877;DHT22;21086;44.780;17.194;2022-11-04T16:07:53;16.20;99.90
34877;DHT22;21086;44.780;17.194;2022-11-04T16:13:21;15.80;99.90
34877;DHT22;21086;44.780;17.194;2022-11-04T16:15:52;15.50;99.90
34877;DHT22;21086;44.780;17.194;2022-11-04T16:18:44;15.30;99.90
34877;DHT22;21086;44.780;17.194;2022-11-04T16:21:32;15.10;99.90
34877;DHT22;21086;44.780;17.194;2022-11-04T16:24:03;15.00;99.90
34877;DHT22;21086;44.780;17.194;2022-11-04T16:26:42;14.80;99.90
34877;DHT22;21086;44.780;17.194;2022-11-04T16:29:24;14.90;99.90
34877;DHT22;21086;44.780;17.194;2022-11-04T16:34:38;14.80;99.90
34877;DHT22;21086;44.780;17.194;2022-11-04T16:37:05;14.80;99.90
34877;DHT22;21086;44.780;17.194;2022-11-04T16:39:32;14.80;99.90
34877;DHT22;21086;44.780;17.194;2022-11-04T16:42:00;14.70;99.90
34877;DHT22;21086;44.780;17.194;2022-11-04T16:44:26;14.70;99.90
34877;DHT22;21086;44.780;17.194;2022-11-04T16:46:54;14.70;99.90
34877;DHT22;21086;44.780;17.194;2022-11-04T16:49:23;14.70;99.90
34877;DHT22;21086;44.780;17.194;2022-11-04T16:51:53;14.80;99.90
34877;DHT22;21086;44.780;17.194;2022-11-04T16:54:21;14.80;99.90
34877;DHT22;21086;44.780;17.194;2022-11-04T16:56:49;14.80;99.90
34877;DHT22;21086;44.780;17.194;2022-11-04T16:59:16;14.70;99.90
34877;DHT22;21086;44.780;17.194;2022-11-04T17:01:42;14.70;99.90
34877;DHT22;21086;44.780;17.194;2022-11-04T17:04:09;14.70;99.90
34877;DHT22;21086;44.780;17.194;2022-11-04T17:06:37;14.70;99.90
34877;DHT22;21086;44.780;17.194;2022-11-04T17:09:19;14.70;99.90
34877;DHT22;21086;44.780;17.194;2022-11-04T17:11:47;14.70;99.90
34877;DHT22;21086;44.780;17.194;2022-11-04T17:14:15;14.70;99.90
34877;DHT22;21086;44.780;17.194;2022-11-04T17:16:43;14.70;99.90
34877;DHT22;21086;44.780;17.194;2022-11-04T17:19:14;14.70;99.90
34877;DHT22;21086;44.780;17.194;2022-11-04T17:21:43;14.60;99.90
34877;DHT22;21086;44.780;17.194;2022-11-04T17:24:11;14.60;99.90
34877;DHT22;21086;44.780;17.194;2022-11-04T17:26:38;14.60;99.90
34877;DHT22;21086;44.780;17.194;2022-11-04T17:29:05;14.60;99.90
34877;DHT22;21086;44.780;17.194;2022-11-04T17:31:32;14.60;99.90
34877;DHT22;21086;44.780;17.194;2022-11-04T17:33:59;14.60;99.90
34877;DHT22;21086;44.780;17.194;2022-11-04T17:36:26;14.60;99.90
34877;DHT22;21086;44.780;17.194;2022-11-04T17:38:52;14.60;99.90
34877;DHT22;21086;44.780;17.194;2022-11-04T17:41:19;14.60;99.90
34877;DHT22;21086;44.780;17.194;2022-11-04T17:44:04;14.60;99.90
34877;DHT22;21086;44.780;17.194;2022-11-04T17:46:32;14.60;99.90
34877;DHT22;21086;44.780;17.194;2022-11-04T17:49:14;14.60;99.90
34877;DHT22;21086;44.780;17.194;2022-11-04T17:51:44;14.60;99.90
34877;DHT22;21086;44.780;17.194;2022-11-04T17:54:11;14.70;99.90
34877;DHT22;21086;44.780;17.194;2022-11-04T17:56:39;14.70;99.90
34877;DHT22;21086;44.780;17.194;2022-11-04T17:59:07;14.70;99.90
34877;DHT22;21086;44.780;17.194;2022-11-04T18:01:35;14.70;99.90